createdAt,value
2022-10-19T00:01:15.160Z,101012.91
2022-10-19T00:03:46.745Z,101020.28
2022-10-19T00:06:16.190Z,101018.13
2022-10-19T00:08:45.063Z,101015.25
2022-10-19T00:11:13.983Z,101021.88
2022-10-19T00:13:41.681Z,101021.69
2022-10-19T00:16:11.651Z,101017.31
2022-10-19T00:18:40.063Z,101020.69
2022-10-19T00:21:08.897Z,101031.38
2022-10-19T00:23:36.853Z,101025.47
2022-10-19T00:26:04.743Z,101023.31
2022-10-19T00:28:34.060Z,101026.03
2022-10-19T00:31:04.046Z,101035.31
2022-10-19T00:33:31.923Z,101022.00
2022-10-19T00:35:59.259Z,101019.13
2022-10-19T00:38:27.919Z,101014.06
2022-10-19T00:40:55.379Z,101017.81
2022-10-19T00:43:26.273Z,101020.50
2022-10-19T00:45:54.962Z,101019.16
2022-10-19T00:48:26.223Z,101020.84
2022-10-19T00:50:58.510Z,101022.34
2022-10-19T00:53:28.622Z,101017.63
2022-10-19T00:55:57.436Z,101013.41
2022-10-19T00:58:25.094Z,101009.53
2022-10-19T01:00:54.391Z,101009.00
2022-10-19T01:03:22.044Z,100995.47
2022-10-19T01:05:49.844Z,100998.22
2022-10-19T01:08:17.894Z,101000.25
2022-10-19T01:10:52.998Z,101002.28
2022-10-19T01:13:36.305Z,101001.25
2022-10-19T01:16:12.225Z,101000.41
2022-10-19T01:18:49.555Z,101006.00
2022-10-19T01:21:23.303Z,101000.72
2022-10-19T01:24:22.291Z,101007.47
2022-10-19T01:27:23.197Z,101002.59
2022-10-19T01:30:02.866Z,100997.38
2022-10-19T01:32:40.538Z,101001.75
2022-10-19T01:35:12.217Z,100999.06
2022-10-19T01:37:47.050Z,100993.84
2022-10-19T01:40:22.052Z,100986.22
2022-10-19T01:42:57.369Z,100985.22
2022-10-19T01:45:31.646Z,100989.59
2022-10-19T01:48:02.824Z,100982.50
2022-10-19T01:50:36.214Z,100984.38
2022-10-19T01:53:06.095Z,100980.00
2022-10-19T01:55:34.329Z,100985.56
2022-10-19T01:58:08.286Z,100987.25
2022-10-19T02:00:42.428Z,100988.25
2022-10-19T02:03:12.284Z,100986.91
2022-10-19T02:05:41.809Z,100985.22
2022-10-19T02:08:14.960Z,100987.75
2022-10-19T02:10:44.548Z,100987.41
2022-10-19T02:13:14.000Z,100986.38
2022-10-19T02:15:47.614Z,100988.22
2022-10-19T02:18:20.645Z,100987.03
2022-10-19T02:20:48.370Z,100976.06
2022-10-19T02:23:20.395Z,100976.41
2022-10-19T02:25:48.444Z,100975.38
2022-10-19T02:28:16.268Z,100981.44
2022-10-19T02:30:45.370Z,100979.28
2022-10-19T02:33:12.966Z,100979.66
2022-10-19T02:35:40.848Z,100984.91
2022-10-19T02:38:11.418Z,100980.16
2022-10-19T02:40:43.496Z,100977.66
2022-10-19T02:43:14.167Z,100984.38
2022-10-19T02:45:49.106Z,100980.34
2022-10-19T02:48:21.606Z,100985.38
2022-10-19T02:50:49.260Z,100975.09
2022-10-19T02:53:16.980Z,100976.44
2022-10-19T02:55:47.376Z,100982.69
2022-10-19T02:58:14.852Z,100974.56
2022-10-19T03:00:42.603Z,100978.13
2022-10-19T03:03:11.489Z,100982.84
2022-10-19T03:05:39.328Z,100983.34
2022-10-19T03:08:06.766Z,100978.47
2022-10-19T03:10:34.569Z,100980.31
2022-10-19T03:13:01.976Z,100985.66
2022-10-19T03:15:29.664Z,100991.22
2022-10-19T03:17:57.520Z,100982.13
2022-10-19T03:20:26.558Z,100976.69
2022-10-19T03:25:21.430Z,100970.94
2022-10-19T03:27:48.750Z,100978.69
2022-10-19T03:30:16.579Z,100973.16
2022-10-19T03:32:44.022Z,100971.59
2022-10-19T03:35:11.698Z,100968.91
2022-10-19T03:37:40.356Z,100968.22
2022-10-19T03:40:09.166Z,100982.56
2022-10-19T03:42:36.491Z,100982.03
2022-10-19T03:45:04.684Z,100982.69
2022-10-19T03:47:32.236Z,100977.31
2022-10-19T03:50:00.321Z,100978.06
2022-10-19T03:52:27.569Z,100978.09
2022-10-19T03:54:56.625Z,100984.19
2022-10-19T03:57:23.907Z,100975.19
2022-10-19T03:59:51.938Z,100976.00
2022-10-19T04:02:19.333Z,100968.56
2022-10-19T04:04:47.208Z,100967.28
2022-10-19T04:07:14.386Z,100968.97
2022-10-19T04:09:42.192Z,100974.31
2022-10-19T04:12:11.122Z,100973.69
2022-10-19T04:14:56.227Z,100984.06
2022-10-19T04:17:26.291Z,100980.88
2022-10-19T04:19:54.038Z,100987.91
2022-10-19T04:22:21.321Z,100985.25
2022-10-19T04:24:49.273Z,100984.75
2022-10-19T04:27:18.413Z,100985.13
2022-10-19T04:29:46.103Z,100985.81
2022-10-19T04:32:13.521Z,100993.50
2022-10-19T04:34:41.280Z,100994.28
2022-10-19T04:37:08.734Z,100987.88
2022-10-19T04:39:36.377Z,100996.47
2022-10-19T04:42:03.789Z,100994.47
2022-10-19T04:44:33.079Z,101002.75
2022-10-19T04:47:00.991Z,100989.28
2022-10-19T04:49:28.910Z,100996.16
2022-10-19T04:51:56.383Z,100993.94
2022-10-19T04:54:24.257Z,100994.06
2022-10-19T04:56:51.862Z,100984.97
2022-10-19T04:59:19.865Z,100984.16
2022-10-19T05:01:48.677Z,100983.50
2022-10-19T05:04:16.891Z,100992.03
2022-10-19T05:06:44.411Z,100998.69
2022-10-19T05:09:12.258Z,100995.31
2022-10-19T05:11:39.724Z,100999.09
2022-10-19T05:14:07.596Z,100995.56
2022-10-19T05:16:34.905Z,100990.41
2022-10-19T05:19:04.403Z,100986.22
2022-10-19T05:21:31.813Z,101004.91
2022-10-19T05:23:59.584Z,100995.69
2022-10-19T05:26:28.543Z,100994.69
2022-10-19T05:28:57.987Z,101001.72
2022-10-19T05:31:27.700Z,100999.59
2022-10-19T05:33:56.041Z,100998.50
2022-10-19T05:36:26.350Z,101008.19
2022-10-19T05:38:55.628Z,101009.00
2022-10-19T05:41:24.272Z,101009.13
2022-10-19T05:43:54.596Z,101005.25
2022-10-19T05:46:22.419Z,101015.09
2022-10-19T05:48:50.284Z,101006.72
2022-10-19T05:51:19.453Z,101023.50
2022-10-19T05:53:49.237Z,101010.56
2022-10-19T05:56:20.850Z,101021.63
2022-10-19T05:58:49.357Z,101012.81
2022-10-19T06:01:17.742Z,101021.97
2022-10-19T06:03:46.190Z,101030.66
2022-10-19T06:06:13.792Z,101031.50
2022-10-19T06:08:41.628Z,101033.19
2022-10-19T06:11:12.497Z,101028.50
2022-10-19T06:13:41.731Z,101039.25
2022-10-19T06:16:10.520Z,101035.63
2022-10-19T06:18:38.518Z,101032.78
2022-10-19T06:21:08.023Z,101039.91
2022-10-19T06:23:36.421Z,101031.25
2022-10-19T06:26:06.776Z,101033.47
2022-10-19T06:28:37.050Z,101036.94
2022-10-19T06:31:07.160Z,101035.63
2022-10-19T06:33:39.156Z,101034.81
2022-10-19T06:36:07.011Z,101047.16
2022-10-19T06:38:34.660Z,101048.09
2022-10-19T06:41:02.382Z,101048.94
2022-10-19T06:43:30.518Z,101051.31
2022-10-19T06:45:59.610Z,101061.47
2022-10-19T06:48:27.893Z,101052.06
2022-10-19T06:50:59.270Z,101050.59
2022-10-19T06:53:28.292Z,101056.44
2022-10-19T06:55:57.856Z,101061.75
2022-10-19T06:58:26.076Z,101052.28
2022-10-19T07:00:57.303Z,101061.50
2022-10-19T07:03:27.052Z,101058.53
2022-10-19T07:05:55.861Z,101061.56
2022-10-19T07:08:24.558Z,101060.03
2022-10-19T07:10:52.314Z,101065.47
2022-10-19T07:13:20.660Z,101073.94
2022-10-19T07:15:48.167Z,101068.81
2022-10-19T07:18:16.361Z,101075.94
2022-10-19T07:20:54.621Z,101075.03
2022-10-19T07:23:22.337Z,101075.03
2022-10-19T07:25:49.685Z,101085.63
2022-10-19T07:28:17.449Z,101090.47
2022-10-19T07:30:44.848Z,101082.63
2022-10-19T07:33:12.773Z,101086.91
2022-10-19T07:35:40.128Z,101087.47
2022-10-19T07:38:09.413Z,101084.44
2022-10-19T07:40:37.134Z,101091.94
2022-10-19T07:43:05.089Z,101091.09
2022-10-19T07:45:33.113Z,101089.88
2022-10-19T07:48:00.692Z,101093.56
2022-10-19T07:50:27.898Z,101100.09
2022-10-19T07:52:55.693Z,101103.66
2022-10-19T07:55:24.371Z,101089.88
2022-10-19T07:57:51.945Z,101093.09
2022-10-19T08:00:19.437Z,101100.38
2022-10-19T08:03:04.948Z,101095.00
2022-10-19T08:05:35.123Z,101094.88
2022-10-19T08:08:03.447Z,101104.72
2022-10-19T08:10:32.472Z,101101.09
2022-10-19T08:13:00.160Z,101103.78
2022-10-19T08:15:29.853Z,101110.72
2022-10-19T08:17:57.751Z,101106.69
2022-10-19T08:20:25.106Z,101110.56
2022-10-19T08:22:56.459Z,101109.09
2022-10-19T08:25:26.749Z,101103.91
2022-10-19T08:27:55.779Z,101096.00
2022-10-19T08:30:23.118Z,101099.16
2022-10-19T08:32:50.749Z,101105.38
2022-10-19T08:35:18.495Z,101098.00
2022-10-19T08:37:46.580Z,101098.13
2022-10-19T08:40:18.997Z,101099.03
2022-10-19T08:42:55.565Z,101098.19
2022-10-19T08:48:25.404Z,101103.75
2022-10-19T08:50:52.665Z,101101.56
2022-10-19T08:53:27.144Z,101105.09
2022-10-19T08:56:04.946Z,101103.16
2022-10-19T08:58:46.466Z,101108.44
2022-10-19T09:01:26.391Z,101106.75
2022-10-19T09:04:01.256Z,101107.91
2022-10-19T09:06:35.100Z,101113.50
2022-10-19T09:09:03.531Z,101106.41
2022-10-19T09:11:35.637Z,101102.38
2022-10-19T09:14:11.006Z,101111.84
2022-10-19T09:16:40.163Z,101105.41
2022-10-19T09:19:15.542Z,101104.56
2022-10-19T09:21:48.854Z,101113.84
2022-10-19T09:24:29.123Z,101112.53
2022-10-19T09:26:58.877Z,101117.41
2022-10-19T09:29:31.789Z,101118.75
2022-10-19T09:32:04.173Z,101126.72
2022-10-19T09:34:36.788Z,101126.88
2022-10-19T09:37:03.848Z,101127.88
2022-10-19T09:39:32.098Z,101127.88
2022-10-19T09:42:16.530Z,101128.25
2022-10-19T09:44:50.181Z,101140.03
2022-10-19T09:47:32.025Z,101132.59
2022-10-19T09:50:16.617Z,101137.00
2022-10-19T09:52:45.393Z,101136.16
2022-10-19T09:55:36.121Z,101142.91
2022-10-19T09:58:06.092Z,101149.31
2022-10-19T10:00:36.803Z,101151.50
2022-10-19T10:03:06.735Z,101154.22
2022-10-19T10:05:36.059Z,101144.25
2022-10-19T10:08:04.072Z,101152.38
2022-10-19T10:10:38.035Z,101153.69
2022-10-19T10:13:06.141Z,101153.53
2022-10-19T10:15:43.709Z,101142.34
2022-10-19T10:18:16.873Z,101142.50
2022-10-19T10:20:58.620Z,101138.41
2022-10-19T10:23:30.475Z,101142.97
2022-10-19T10:25:58.742Z,101143.63
2022-10-19T10:28:27.372Z,101139.97
2022-10-19T10:30:59.794Z,101139.16
2022-10-19T10:33:45.867Z,101136.78
2022-10-19T10:36:14.647Z,101129.38
2022-10-19T10:38:46.547Z,101132.25
2022-10-19T10:41:16.429Z,101134.66
2022-10-19T10:46:23.828Z,101129.94
2022-10-19T10:48:58.456Z,101131.09
2022-10-19T10:51:33.364Z,101129.06
2022-10-19T10:54:15.685Z,101127.16
2022-10-19T10:57:10.898Z,101126.50
2022-10-19T10:59:45.759Z,101121.41
2022-10-19T11:05:01.869Z,101127.56
2022-10-19T11:07:32.875Z,101130.00
2022-10-19T11:10:06.697Z,101127.06
2022-10-19T11:12:40.033Z,101128.25
2022-10-19T11:15:17.366Z,101117.88
2022-10-19T11:17:56.920Z,101123.13
2022-10-19T11:20:30.159Z,101117.75
2022-10-19T11:23:07.152Z,101123.81
2022-10-19T11:25:45.572Z,101124.47
2022-10-19T11:28:29.615Z,101128.47
2022-10-19T11:31:04.538Z,101131.88
2022-10-19T11:33:44.735Z,101129.06
2022-10-19T11:36:28.811Z,101122.25
2022-10-19T11:39:13.554Z,101129.03
2022-10-19T11:41:50.709Z,101131.06
2022-10-19T11:44:28.922Z,101129.19
2022-10-19T11:47:11.625Z,101128.03
2022-10-19T11:49:54.468Z,101129.41
2022-10-19T11:52:34.193Z,101127.53
2022-10-19T11:55:14.017Z,101132.78
2022-10-19T11:57:48.753Z,101136.31
2022-10-19T12:00:37.733Z,101130.25
2022-10-19T12:03:38.832Z,101131.28
2022-10-19T12:06:12.297Z,101133.78
2022-10-19T12:08:58.173Z,101129.06
2022-10-19T12:11:36.742Z,101131.41
2022-10-19T12:14:10.948Z,101121.81
2022-10-19T12:16:44.410Z,101124.66
2022-10-19T12:19:19.496Z,101127.22
2022-10-19T12:21:48.734Z,101133.81
2022-10-19T12:24:20.376Z,101128.72
2022-10-19T12:26:49.456Z,101133.28
2022-10-19T12:29:20.545Z,101131.09
2022-10-19T12:31:49.083Z,101130.09
2022-10-19T12:34:26.979Z,101134.47
2022-10-19T12:36:59.055Z,101132.63
2022-10-19T12:39:35.022Z,101123.16
2022-10-19T12:42:14.731Z,101130.75
2022-10-19T12:45:10.257Z,101123.84
2022-10-19T12:47:38.123Z,101123.31
2022-10-19T12:50:06.166Z,101121.47
2022-10-19T12:52:38.344Z,101121.97
2022-10-19T12:55:29.616Z,101129.03
2022-10-19T12:58:01.755Z,101133.28
2022-10-19T13:00:31.205Z,101129.06
2022-10-19T13:03:03.032Z,101127.53
2022-10-19T13:05:32.395Z,101134.81
2022-10-19T13:08:02.535Z,101136.50
2022-10-19T13:10:33.266Z,101130.06
2022-10-19T13:13:02.015Z,101135.44
2022-10-19T13:15:56.956Z,101137.66
2022-10-19T13:19:01.643Z,101132.25
2022-10-19T13:21:50.666Z,101140.00
2022-10-19T13:24:33.133Z,101141.88
2022-10-19T13:27:25.819Z,101137.31
2022-10-19T13:29:53.975Z,101139.72
2022-10-19T13:32:40.896Z,101135.31
2022-10-19T13:35:33.434Z,101143.53
2022-10-19T13:38:31.239Z,101142.84
2022-10-19T13:41:05.493Z,101144.56
2022-10-19T13:43:39.920Z,101151.22
2022-10-19T13:46:14.240Z,101147.09
2022-10-19T13:49:13.640Z,101147.09
2022-10-19T13:51:50.245Z,101146.66
2022-10-19T13:54:38.175Z,101140.25
2022-10-19T13:57:18.180Z,101143.88
2022-10-19T14:00:05.450Z,101141.50
2022-10-19T14:03:16.652Z,101140.84
2022-10-19T14:06:22.271Z,101129.53
2022-10-19T14:09:25.838Z,101117.41
2022-10-19T14:11:54.524Z,101114.69
2022-10-19T14:14:24.497Z,101116.22
2022-10-19T14:16:59.763Z,101115.56
2022-10-19T14:19:33.299Z,101111.34
2022-10-19T14:22:17.264Z,101101.91
2022-10-19T14:24:45.100Z,101104.41
2022-10-19T14:27:19.426Z,101104.91
2022-10-19T14:29:49.595Z,101098.78
2022-10-19T14:32:22.415Z,101105.88
2022-10-19T14:34:50.629Z,101101.34
2022-10-19T14:37:20.281Z,101103.19
2022-10-19T14:40:02.357Z,101105.81
2022-10-19T14:42:38.043Z,101109.22
2022-10-19T14:45:12.431Z,101106.50
2022-10-19T14:47:53.669Z,101104.44
2022-10-19T14:53:33.977Z,101113.78
2022-10-19T14:56:06.771Z,101114.84
2022-10-19T14:58:36.965Z,101112.97
2022-10-19T15:01:05.810Z,101111.66
2022-10-19T15:03:34.836Z,101110.50
2022-10-19T15:06:06.087Z,101113.38
2022-10-19T15:08:37.813Z,101114.38
2022-10-19T15:11:07.195Z,101116.06
2022-10-19T15:13:40.403Z,101112.84
2022-10-19T15:16:29.703Z,101115.38
2022-10-19T15:19:03.971Z,101120.28
2022-10-19T15:21:33.517Z,101112.19
2022-10-19T15:24:15.699Z,101104.56
2022-10-19T15:27:01.720Z,101107.06
2022-10-19T15:29:36.256Z,101102.84
2022-10-19T15:32:15.506Z,101104.59
2022-10-19T15:34:45.942Z,101115.19
2022-10-19T15:37:19.996Z,101111.91
2022-10-19T15:39:48.219Z,101109.16
2022-10-19T15:42:34.099Z,101107.50
2022-10-19T15:45:02.500Z,101107.13
2022-10-19T15:47:30.418Z,101099.34
2022-10-19T15:50:01.045Z,101111.41
2022-10-19T15:52:29.942Z,101107.53
2022-10-19T15:54:58.806Z,101104.50
2022-10-19T15:57:30.553Z,101110.38
2022-10-19T16:00:00.232Z,101106.84
2022-10-19T16:02:28.092Z,101112.31
2022-10-19T16:04:55.776Z,101124.13
2022-10-19T16:07:29.464Z,101116.44
2022-10-19T16:09:57.307Z,101117.81
2022-10-19T16:12:26.414Z,101117.81
2022-10-19T16:14:54.474Z,101112.88
2022-10-19T16:17:22.530Z,101116.06
2022-10-19T16:19:50.207Z,101124.72
2022-10-19T16:22:20.777Z,101128.34
2022-10-19T16:24:49.540Z,101137.19
2022-10-19T16:27:17.801Z,101137.03
2022-10-19T16:29:45.230Z,101134.25
2022-10-19T16:32:13.092Z,101143.19
2022-10-19T16:34:40.597Z,101143.06
2022-10-19T16:37:08.560Z,101153.69
2022-10-19T16:39:35.945Z,101153.53
2022-10-19T16:42:05.107Z,101146.47
2022-10-19T16:44:32.732Z,101152.50
2022-10-19T16:47:00.385Z,101151.06
2022-10-19T16:49:27.998Z,101155.31
2022-10-19T16:51:57.460Z,101161.84
2022-10-19T16:54:28.897Z,101158.72
2022-10-19T16:56:56.679Z,101154.84
2022-10-19T16:59:25.329Z,101151.63
2022-10-19T17:01:53.031Z,101162.69
2022-10-19T17:04:20.458Z,101159.09
2022-10-19T17:06:48.469Z,101159.88
2022-10-19T17:09:41.319Z,101165.03
2022-10-19T17:12:05.626Z,101166.47
2022-10-19T17:14:35.478Z,101169.34
2022-10-19T17:17:03.491Z,101172.03
2022-10-19T17:19:33.550Z,101176.78
2022-10-19T17:22:01.391Z,101180.25
2022-10-19T17:24:28.882Z,101185.41
2022-10-19T17:26:56.656Z,101198.03
2022-10-19T17:29:24.494Z,101192.03
2022-10-19T17:31:53.614Z,101198.72
2022-10-19T17:34:20.942Z,101204.25
2022-10-19T17:36:49.053Z,101205.00
2022-10-19T17:39:19.063Z,101207.94
2022-10-19T17:41:51.715Z,101209.72
2022-10-19T17:44:19.870Z,101217.41
2022-10-19T17:46:48.306Z,101223.03
2022-10-19T17:49:17.935Z,101227.34
2022-10-19T17:51:45.778Z,101224.19
2022-10-19T17:54:14.588Z,101223.38
2022-10-19T17:56:42.992Z,101230.66
2022-10-19T17:59:10.620Z,101231.03
2022-10-19T18:01:38.708Z,101234.41
2022-10-19T18:04:06.816Z,101233.22
2022-10-19T18:06:37.418Z,101223.06
2022-10-19T18:09:08.027Z,101236.44
2022-10-19T18:11:37.519Z,101230.53
2022-10-19T18:14:06.420Z,101234.38
2022-10-19T18:16:36.197Z,101239.97
2022-10-19T18:19:04.992Z,101240.81
2022-10-19T18:21:37.561Z,101247.66
2022-10-19T18:24:09.070Z,101240.28
2022-10-19T18:26:39.965Z,101243.84
2022-10-19T18:29:11.389Z,101244.53
2022-10-19T18:31:40.022Z,101248.91
2022-10-19T18:34:13.098Z,101248.66
2022-10-19T18:36:43.629Z,101246.84
2022-10-19T18:39:13.901Z,101250.53
2022-10-19T18:41:42.532Z,101239.06
2022-10-19T18:44:13.334Z,101238.91
2022-10-19T18:46:41.670Z,101238.94
2022-10-19T18:49:10.514Z,101245.81
2022-10-19T18:51:39.227Z,101237.56
2022-10-19T18:54:08.650Z,101245.91
2022-10-19T18:56:36.579Z,101241.94
2022-10-19T18:59:04.431Z,101240.66
2022-10-19T19:01:32.584Z,101239.22
2022-10-19T19:04:07.157Z,101242.66
2022-10-19T19:06:36.802Z,101242.34
2022-10-19T19:09:08.217Z,101244.56
2022-10-19T19:11:37.743Z,101238.47
2022-10-19T19:14:07.709Z,101238.78
2022-10-19T19:16:36.967Z,101243.78
2022-10-19T19:19:04.874Z,101248.91
2022-10-19T19:21:33.229Z,101253.16
2022-10-19T19:24:03.058Z,101243.25
2022-10-19T19:26:34.506Z,101254.41
2022-10-19T19:29:01.851Z,101257.41
2022-10-19T19:31:29.757Z,101258.94
2022-10-19T19:34:00.030Z,101255.53
2022-10-19T19:36:28.893Z,101257.91
2022-10-19T19:38:57.325Z,101263.69
2022-10-19T19:41:25.401Z,101258.25
2022-10-19T19:43:55.566Z,101262.63
2022-10-19T19:46:23.504Z,101263.16
2022-10-19T19:48:51.188Z,101257.84
2022-10-19T19:51:21.004Z,101259.78
2022-10-19T19:53:48.741Z,101260.69
2022-10-19T19:56:16.988Z,101258.09
2022-10-19T19:58:45.580Z,101266.28
2022-10-19T20:01:17.360Z,101268.34
2022-10-19T20:03:45.429Z,101274.72
2022-10-19T20:06:14.231Z,101270.75
2022-10-19T20:08:41.837Z,101272.97
2022-10-19T20:11:12.224Z,101269.13
2022-10-19T20:13:40.086Z,101273.38
2022-10-19T20:16:08.931Z,101272.13
2022-10-19T20:18:37.699Z,101271.13
2022-10-19T20:21:05.900Z,101267.16
2022-10-19T20:23:33.567Z,101265.75
2022-10-19T20:26:01.636Z,101267.75
2022-10-19T20:28:31.782Z,101275.25
2022-10-19T20:31:00.912Z,101266.91
2022-10-19T20:33:30.392Z,101268.44
2022-10-19T20:36:03.285Z,101274.25
2022-10-19T20:38:30.530Z,101274.06
2022-10-19T20:40:58.365Z,101270.53
2022-10-19T20:43:25.803Z,101272.50
2022-10-19T20:45:53.482Z,101275.47
2022-10-19T20:48:20.775Z,101270.41
2022-10-19T20:50:48.778Z,101277.72
2022-10-19T20:53:17.527Z,101279.41
2022-10-19T20:55:45.331Z,101278.09
2022-10-19T20:58:12.672Z,101281.28
2022-10-19T21:00:40.667Z,101282.34
2022-10-19T21:03:07.986Z,101293.72
2022-10-19T21:05:38.354Z,101288.50
2022-10-19T21:08:05.780Z,101290.00
2022-10-19T21:10:34.950Z,101284.06
2022-10-19T21:13:02.266Z,101285.44
2022-10-19T21:15:29.799Z,101290.16
2022-10-19T21:17:57.115Z,101289.38
2022-10-19T21:20:24.944Z,101290.00
2022-10-19T21:22:52.047Z,101296.28
2022-10-19T21:25:19.816Z,101297.63
2022-10-19T21:27:51.612Z,101297.09
2022-10-19T21:30:19.106Z,101290.81
2022-10-19T21:32:47.956Z,101297.03
2022-10-19T21:35:16.258Z,101294.47
2022-10-19T21:37:43.730Z,101294.00
2022-10-19T21:40:11.760Z,101295.00
2022-10-19T21:42:38.999Z,101295.03
2022-10-19T21:45:29.173Z,101301.00
2022-10-19T21:47:57.390Z,101303.94
2022-10-19T21:50:25.197Z,101304.31
2022-10-19T21:52:52.343Z,101304.00
2022-10-19T21:55:20.050Z,101304.00
2022-10-19T21:57:47.326Z,101305.94
2022-10-19T22:00:16.274Z,101297.66
2022-10-19T22:02:43.672Z,101298.56
2022-10-19T22:05:11.366Z,101292.94
2022-10-19T22:07:41.373Z,101302.03
2022-10-19T22:10:09.863Z,101299.50
2022-10-19T22:12:37.712Z,101303.53
2022-10-19T22:15:06.857Z,101312.31
2022-10-19T22:17:35.743Z,101307.97
2022-10-19T22:20:04.700Z,101300.81
2022-10-19T22:22:32.030Z,101307.78
2022-10-19T22:25:00.132Z,101305.94
2022-10-19T22:27:27.652Z,101304.59
2022-10-19T22:29:55.283Z,101310.19
2022-10-19T22:32:22.682Z,101310.66
2022-10-19T22:34:51.976Z,101315.94
2022-10-19T22:37:19.303Z,101313.72
2022-10-19T22:39:46.997Z,101316.66
2022-10-19T22:42:51.342Z,101318.81
2022-10-19T22:45:19.266Z,101322.13
2022-10-19T22:47:47.143Z,101317.38
2022-10-19T22:50:16.545Z,101317.50
2022-10-19T22:52:44.505Z,101316.16
2022-10-19T22:55:12.418Z,101322.44
2022-10-19T22:57:39.829Z,101316.91
2022-10-19T23:00:08.890Z,101319.91
2022-10-19T23:02:36.402Z,101318.59
2022-10-19T23:05:05.226Z,101324.31
2022-10-19T23:07:34.713Z,101320.91
2022-10-19T23:10:02.717Z,101317.84
2022-10-19T23:12:30.212Z,101320.13
2022-10-19T23:14:58.097Z,101313.22
2022-10-19T23:17:25.739Z,101309.97
2022-10-19T23:19:53.821Z,101310.41
2022-10-19T23:22:21.334Z,101314.06
2022-10-19T23:24:50.509Z,101314.31
2022-10-19T23:27:17.822Z,101316.72
2022-10-19T23:29:45.898Z,101323.47
2022-10-19T23:32:13.306Z,101324.13
2022-10-19T23:34:43.211Z,101319.06
2022-10-19T23:37:13.225Z,101313.47
2022-10-19T23:39:40.916Z,101312.72
2022-10-19T23:42:09.699Z,101316.00
2022-10-19T23:44:40.551Z,101312.47
2022-10-19T23:47:08.197Z,101311.84
2022-10-19T23:49:35.858Z,101313.03
2022-10-19T23:52:03.336Z,101310.03
2022-10-19T23:54:31.657Z,101305.16
2022-10-19T23:56:58.991Z,101303.09
2022-10-19T23:59:28.123Z,101310.78
